Time;durP1;ratioP1;P1;durP2;ratioP2;P2;SDS_P1;SDS_P2;PMS_P1;PMS_P2;Temp;Humidity;BMP_temperature;BMP_pressure;BME280_temperature;BME280_humidity;BME280_pressure;Samples;Min_cycle;Max_cycle;Signal;HPM_P1;HPM_P2
2023/07/02 00:01:11;;;;;;;;;;;27.20;53.40;;;;;;5071003;28;42506;-84
2023/07/02 00:03:39;;;;;;;;;;;27.20;53.90;;;;;;5070963;28;42999;-94
2023/07/02 00:06:05;;;;;;;;;;;27.20;53.80;;;;;;5070985;28;42625;-91
2023/07/02 00:08:30;;;;;;;;;;;27.20;53.80;;;;;;5059245;28;43627;-79
2023/07/02 00:10:59;;;;;;;;;;;27.20;53.90;;;;;;5059505;28;42740;-92
2023/07/02 00:13:24;;;;;;;;;;;27.20;53.40;;;;;;5041219;28;42838;-89
2023/07/02 00:15:50;;;;;;;;;;;27.20;53.40;;;;;;5042816;28;42842;-81
2023/07/02 00:18:16;;;;;;;;;;;27.20;53.40;;;;;;5042876;28;43463;-81
2023/07/02 00:20:41;;;;;;;;;;;27.20;53.40;;;;;;5046601;28;42833;-79
2023/07/02 00:23:08;;;;;;;;;;;27.30;54.00;;;;;;5047599;28;42894;-78
2023/07/02 00:25:34;;;;;;;;;;;27.30;53.50;;;;;;5042568;28;42930;-81
2023/07/02 00:27:59;;;;;;;;;;;27.20;54.00;;;;;;5048676;28;42767;-83
2023/07/02 00:30:25;;;;;;;;;;;27.20;53.60;;;;;;5044263;28;43025;-81
2023/07/02 00:32:51;;;;;;;;;;;27.20;54.00;;;;;;5046861;28;42830;-78
2023/07/02 00:35:16;;;;;;;;;;;27.20;53.60;;;;;;5045666;28;42952;-78
2023/07/02 00:37:42;;;;;;;;;;;27.30;54.20;;;;;;5042644;28;43681;-78
2023/07/02 00:40:08;;;;;;;;;;;27.30;54.10;;;;;;5048826;28;42307;-79
2023/07/02 00:42:33;;;;;;;;;;;27.20;53.60;;;;;;5048796;28;43962;-79
2023/07/02 00:45:02;;;;;;;;;;;27.30;53.70;;;;;;5037177;28;43033;-78
2023/07/02 00:47:28;;;;;;;;;;;27.30;53.70;;;;;;5036922;28;43481;-78
2023/07/02 00:49:54;;;;;;;;;;;27.30;53.70;;;;;;5043691;28;42727;-79
2023/07/02 00:52:20;;;;;;;;;;;27.20;53.70;;;;;;5045310;28;43491;-84
2023/07/02 00:54:46;;;;;;;;;;;27.30;53.80;;;;;;5043366;28;42933;-87
2023/07/02 00:57:12;;;;;;;;;;;27.20;53.70;;;;;;5042081;28;42794;-81
2023/07/02 00:59:38;;;;;;;;;;;27.30;53.70;;;;;;5042670;28;42747;-84
2023/07/02 01:02:04;;;;;;;;;;;27.20;54.10;;;;;;5039414;28;42940;-86
2023/07/02 01:04:30;;;;;;;;;;;27.20;53.60;;;;;;5041709;28;43018;-87
2023/07/02 01:06:59;;;;;;;;;;;27.20;54.00;;;;;;5050319;28;42791;-80
2023/07/02 01:09:27;;;;;;;;;;;27.20;54.00;;;;;;5036237;28;42957;-80
2023/07/02 01:11:53;;;;;;;;;;;27.30;53.70;;;;;;5049264;28;42923;-87
2023/07/02 01:14:25;;;;;;;;;;;27.20;54.10;;;;;;5041718;28;42965;-81
2023/07/02 01:16:52;;;;;;;;;;;27.20;53.60;;;;;;5043457;28;42910;-87
2023/07/02 01:19:20;;;;;;;;;;;27.20;54.10;;;;;;5050033;28;42879;-90
2023/07/02 01:21:47;;;;;;;;;;;27.30;54.20;;;;;;5047551;28;43592;-87
2023/07/02 01:24:14;;;;;;;;;;;27.20;54.10;;;;;;5041743;28;42823;-80
2023/07/02 01:26:40;;;;;;;;;;;27.20;54.10;;;;;;5046683;28;42587;-78
2023/07/02 01:29:18;;;;;;;;;;;27.20;53.60;;;;;;5049688;28;42701;-87
2023/07/02 01:31:44;;;;;;;;;;;27.20;53.60;;;;;;5042879;28;43169;-88
2023/07/02 01:34:10;;;;;;;;;;;27.30;53.70;;;;;;5050635;28;42421;-78
2023/07/02 01:36:36;;;;;;;;;;;27.10;53.50;;;;;;5046185;28;42793;-80
2023/07/02 01:39:02;;;;;;;;;;;27.20;53.60;;;;;;5042656;28;42859;-79
2023/07/02 01:41:27;;;;;;;;;;;27.20;53.60;;;;;;5042831;28;42888;-79
2023/07/02 01:43:53;;;;;;;;;;;27.30;54.20;;;;;;5048890;28;42943;-93
2023/07/02 01:46:18;;;;;;;;;;;27.30;53.70;;;;;;5049147;28;42358;-81
2023/07/02 01:48:44;;;;;;;;;;;27.20;53.60;;;;;;5046038;28;42775;-78
2023/07/02 01:51:09;;;;;;;;;;;27.30;53.70;;;;;;5041210;28;43622;-79
2023/07/02 01:53:35;;;;;;;;;;;27.20;54.10;;;;;;5036828;28;42984;-82
2023/07/02 01:56:01;;;;;;;;;;;27.20;53.70;;;;;;5050801;28;42378;-88
2023/07/02 01:58:26;;;;;;;;;;;27.20;53.60;;;;;;5051079;28;42280;-86
2023/07/02 02:00:54;;;;;;;;;;;27.30;53.70;;;;;;5049424;28;63634;-81
2023/07/02 02:03:20;;;;;;;;;;;27.30;54.20;;;;;;5037476;28;42853;-78
2023/07/02 02:05:45;;;;;;;;;;;27.20;54.10;;;;;;5043465;28;43536;-79
2023/07/02 02:08:11;;;;;;;;;;;27.30;53.80;;;;;;5040458;28;42888;-78
2023/07/02 02:10:36;;;;;;;;;;;27.20;53.60;;;;;;5035776;28;43456;-79
2023/07/02 02:13:02;;;;;;;;;;;27.30;54.20;;;;;;5045675;28;42847;-79
2023/07/02 02:15:27;;;;;;;;;;;27.30;53.70;;;;;;5047457;28;43969;-79
2023/07/02 02:17:52;;;;;;;;;;;27.30;53.70;;;;;;5040178;28;42756;-79
2023/07/02 02:20:18;;;;;;;;;;;27.30;53.70;;;;;;5039401;28;42880;-83
2023/07/02 02:22:44;;;;;;;;;;;27.20;54.10;;;;;;5049326;28;42322;-80
2023/07/02 02:25:09;;;;;;;;;;;27.30;53.70;;;;;;5041444;28;42959;-79
2023/07/02 02:27:35;;;;;;;;;;;27.20;53.60;;;;;;5038285;28;42760;-78
2023/07/02 02:30:00;;;;;;;;;;;27.20;53.60;;;;;;5042494;28;42755;-78
2023/07/02 02:32:26;;;;;;;;;;;27.20;53.70;;;;;;5048162;28;42649;-79
2023/07/02 02:34:51;;;;;;;;;;;27.30;53.70;;;;;;5049637;28;42646;-81
2023/07/02 02:37:17;;;;;;;;;;;27.20;53.60;;;;;;5040180;28;42707;-78
2023/07/02 02:39:42;;;;;;;;;;;27.30;53.70;;;;;;5034380;28;43547;-80
2023/07/02 02:42:08;;;;;;;;;;;;;;;;;;5042042;28;42822;-85
2023/07/02 02:44:34;;;;;;;;;;;27.30;53.70;;;;;;5040657;28;43600;-78
2023/07/02 02:46:59;;;;;;;;;;;27.20;54.10;;;;;;5033023;28;43005;-78
2023/07/02 02:49:25;;;;;;;;;;;27.30;54.10;;;;;;5035083;28;42873;-78
2023/07/02 02:51:51;;;;;;;;;;;27.20;54.10;;;;;;5027702;28;42993;-78
2023/07/02 02:54:16;;;;;;;;;;;27.20;53.60;;;;;;5046255;28;42794;-78
2023/07/02 02:56:42;;;;;;;;;;;27.20;53.60;;;;;;5049819;28;42462;-79
2023/07/02 02:59:07;;;;;;;;;;;27.20;53.60;;;;;;5049303;28;42937;-81
2023/07/02 03:01:33;;;;;;;;;;;27.30;53.60;;;;;;5053301;28;42231;-85
2023/07/02 03:03:59;;;;;;;;;;;;;;;;;;5106241;22;43045;-79
2023/07/02 03:06:24;;;;;;;;;;;27.20;53.50;;;;;;5109938;28;42163;-80
2023/07/02 03:08:50;;;;;;;;;;;27.20;53.50;;;;;;5086468;28;42710;-78
2023/07/02 03:11:15;;;;;;;;;;;27.20;53.50;;;;;;5112262;28;42300;-78
2023/07/02 03:13:41;;;;;;;;;;;27.30;53.60;;;;;;5105427;28;43728;-79
2023/07/02 03:16:06;;;;;;;;;;;27.30;53.60;;;;;;5107449;28;42792;-85
2023/07/02 03:18:32;;;;;;;;;;;27.20;54.00;;;;;;5105800;28;42377;-94
2023/07/02 03:20:58;;;;;;;;;;;27.20;53.50;;;;;;5113532;28;42126;-94
2023/07/02 03:23:23;;;;;;;;;;;27.20;54.00;;;;;;5107291;28;43734;-80
2023/07/02 03:25:49;;;;;;;;;;;27.30;54.00;;;;;;5090762;28;42337;-79
2023/07/02 03:28:14;;;;;;;;;;;27.20;53.50;;;;;;5111986;28;42565;-91
2023/07/02 03:30:40;;;;;;;;;;;27.20;54.00;;;;;;5092097;28;42351;-82
2023/07/02 03:33:08;;;;;;;;;;;27.20;53.60;;;;;;5104948;28;42852;-92
2023/07/02 03:35:33;;;;;;;;;;;27.20;54.00;;;;;;5112933;28;42295;-87
2023/07/02 03:37:59;;;;;;;;;;;27.30;54.10;;;;;;5101864;28;42764;-78
2023/07/02 03:40:24;;;;;;;;;;;27.30;53.60;;;;;;5102809;28;42725;-88
2023/07/02 03:42:50;;;;;;;;;;;27.20;54.00;;;;;;5111434;28;43008;-85
2023/07/02 03:45:15;;;;;;;;;;;27.20;53.50;;;;;;5109981;28;42843;-78
2023/07/02 03:47:41;;;;;;;;;;;27.30;54.10;;;;;;5102992;28;43649;-78
2023/07/02 03:50:06;;;;;;;;;;;27.20;53.60;;;;;;5101206;28;42923;-83
2023/07/02 03:52:32;;;;;;;;;;;27.20;53.60;;;;;;5111886;28;43800;-83
2023/07/02 03:54:58;;;;;;;;;;;27.20;53.50;;;;;;5103720;28;42721;-90
2023/07/02 03:57:23;;;;;;;;;;;27.20;53.50;;;;;;5100746;28;43161;-78
2023/07/02 03:59:49;;;;;;;;;;;27.20;54.00;;;;;;5107262;28;42253;-78
2023/07/02 04:02:14;;;;;;;;;;;27.20;53.60;;;;;;5104513;28;43649;-80
2023/07/02 04:04:39;;;;;;;;;;;27.20;54.00;;;;;;5111733;28;42828;-82
2023/07/02 04:07:05;;;;;;;;;;;27.30;54.10;;;;;;5096536;28;43180;-81
2023/07/02 04:09:32;;;;;;;;;;;27.30;54.10;;;;;;5103871;28;42844;-79
2023/07/02 04:11:58;;;;;;;;;;;27.20;54.00;;;;;;5094764;28;44298;-88
2023/07/02 04:14:24;;;;;;;;;;;27.30;53.60;;;;;;5110043;28;42752;-78
2023/07/02 04:16:49;;;;;;;;;;;27.30;53.60;;;;;;5104134;28;43666;-78
2023/07/02 04:19:15;;;;;;;;;;;27.20;53.60;;;;;;5106443;28;42669;-78
2023/07/02 04:21:40;;;;;;;;;;;27.20;53.60;;;;;;5094851;28;42752;-79
2023/07/02 04:24:06;;;;;;;;;;;27.20;53.50;;;;;;5105382;28;42753;-78
2023/07/02 04:26:31;;;;;;;;;;;27.20;54.00;;;;;;5106792;28;42808;-80
2023/07/02 04:28:57;;;;;;;;;;;27.20;54.00;;;;;;5098327;28;42738;-78
2023/07/02 04:31:22;;;;;;;;;;;27.20;53.60;;;;;;5099306;28;42847;-78
2023/07/02 04:33:48;;;;;;;;;;;27.30;53.60;;;;;;5105979;28;42707;-86
2023/07/02 04:36:14;;;;;;;;;;;27.20;53.60;;;;;;5084207;28;44493;-78
2023/07/02 04:38:39;;;;;;;;;;;27.20;53.60;;;;;;5106852;28;42822;-78
2023/07/02 04:41:05;;;;;;;;;;;27.20;53.60;;;;;;5096769;28;43543;-78
2023/07/02 04:43:33;;;;;;;;;;;27.20;53.50;;;;;;5103944;28;42900;-84
2023/07/02 04:45:59;;;;;;;;;;;27.20;54.00;;;;;;5105188;28;43053;-78
2023/07/02 04:48:24;;;;;;;;;;;27.20;53.50;;;;;;5098900;28;42737;-81
2023/07/02 04:50:50;;;;;;;;;;;27.20;54.00;;;;;;5105267;28;43494;-78
2023/07/02 04:53:15;;;;;;;;;;;27.20;53.60;;;;;;5108267;28;42261;-78
2023/07/02 04:55:41;;;;;;;;;;;27.20;54.00;;;;;;5107657;28;42756;-82
2023/07/02 04:58:07;;;;;;;;;;;27.20;54.00;;;;;;5105970;28;42993;-87
2023/07/02 05:00:32;;;;;;;;;;;27.30;53.60;;;;;;5198689;22;42725;-78
2023/07/02 05:02:58;;;;;;;;;;;27.20;53.50;;;;;;5144159;27;42993;-78
2023/07/02 05:05:23;;;;;;;;;;;27.20;53.60;;;;;;5138922;27;43302;-81
2023/07/02 05:07:49;;;;;;;;;;;27.20;53.60;;;;;;5151064;27;43323;-78
2023/07/02 05:10:14;;;;;;;;;;;27.20;54.00;;;;;;5132950;27;43506;-79
2023/07/02 05:12:40;;;;;;;;;;;27.20;54.00;;;;;;5123960;27;42724;-79
2023/07/02 05:15:06;;;;;;;;;;;27.20;53.60;;;;;;5140055;27;42841;-84
2023/07/02 05:17:34;;;;;;;;;;;27.20;54.10;;;;;;5140791;27;42894;-78
2023/07/02 05:20:04;;;;;;;;;;;27.30;53.70;;;;;;5135591;27;43102;-78
2023/07/02 05:22:30;;;;;;;;;;;27.20;53.60;;;;;;5143974;27;42766;-78
2023/07/02 05:24:55;;;;;;;;;;;27.20;53.60;;;;;;5145800;27;43152;-79
2023/07/02 05:27:21;;;;;;;;;;;27.30;53.70;;;;;;5142720;27;42822;-79
2023/07/02 05:29:46;;;;;;;;;;;27.20;54.20;;;;;;5136314;27;43094;-78
2023/07/02 05:32:12;;;;;;;;;;;27.20;53.60;;;;;;5137019;27;42889;-79
2023/07/02 05:34:37;;;;;;;;;;;27.20;54.10;;;;;;5149521;27;43624;-84
2023/07/02 05:37:03;;;;;;;;;;;27.20;53.60;;;;;;5147296;27;42461;-79
2023/07/02 05:39:29;;;;;;;;;;;27.20;54.00;;;;;;5137094;27;42881;-79
2023/07/02 05:41:55;;;;;;;;;;;27.20;53.60;;;;;;5140370;27;42957;-78
2023/07/02 05:44:20;;;;;;;;;;;27.20;53.70;;;;;;5129685;27;43476;-78
2023/07/02 05:46:46;;;;;;;;;;;27.20;53.70;;;;;;5128596;27;42833;-78
2023/07/02 05:49:11;;;;;;;;;;;27.20;53.70;;;;;;5129213;27;42847;-78
2023/07/02 05:51:37;;;;;;;;;;;27.20;54.20;;;;;;5130402;27;42844;-78
2023/07/02 05:54:02;;;;;;;;;;;27.20;53.70;;;;;;5128255;27;43081;-79
2023/07/02 05:56:28;;;;;;;;;;;27.20;54.20;;;;;;5127948;27;42944;-79
2023/07/02 05:58:53;;;;;;;;;;;27.20;54.20;;;;;;5128530;27;42779;-78
2023/07/02 06:01:19;;;;;;;;;;;27.20;54.20;;;;;;5129020;27;42915;-78
2023/07/02 06:03:45;;;;;;;;;;;27.20;53.70;;;;;;5132228;27;42932;-79
2023/07/02 06:06:11;;;;;;;;;;;27.20;54.20;;;;;;5130704;27;42850;-78
2023/07/02 06:08:36;;;;;;;;;;;27.20;53.70;;;;;;5128763;27;42999;-78
2023/07/02 06:11:02;;;;;;;;;;;27.20;54.10;;;;;;5129105;27;42978;-78
2023/07/02 06:13:27;;;;;;;;;;;27.20;53.70;;;;;;5129741;27;43915;-79
2023/07/02 06:15:53;;;;;;;;;;;27.20;53.70;;;;;;5127874;27;43006;-78
2023/07/02 06:18:18;;;;;;;;;;;27.20;54.10;;;;;;5130081;27;43027;-78
2023/07/02 06:20:44;;;;;;;;;;;27.20;53.70;;;;;;5130971;27;42840;-78
2023/07/02 06:23:09;;;;;;;;;;;27.20;53.70;;;;;;5131335;27;42915;-79
2023/07/02 06:25:35;;;;;;;;;;;27.20;53.70;;;;;;5132284;27;42917;-79
2023/07/02 06:28:00;;;;;;;;;;;27.20;54.10;;;;;;5129370;27;42834;-78
2023/07/02 06:30:26;;;;;;;;;;;27.20;54.10;;;;;;5130703;27;42871;-78
2023/07/02 06:32:52;;;;;;;;;;;27.20;54.10;;;;;;5130226;27;42868;-79
2023/07/02 06:35:17;;;;;;;;;;;27.20;53.60;;;;;;5130531;27;42924;-78
2023/07/02 06:37:43;;;;;;;;;;;27.30;54.20;;;;;;5133074;27;43188;-79
2023/07/02 06:40:09;;;;;;;;;;;27.20;54.10;;;;;;5133839;27;43024;-79
2023/07/02 06:42:38;;;;;;;;;;;27.20;54.10;;;;;;5133456;27;43553;-79
2023/07/02 06:45:04;;;;;;;;;;;27.20;53.60;;;;;;5133065;27;43127;-78
2023/07/02 06:47:29;;;;;;;;;;;27.30;53.70;;;;;;5134321;27;43989;-78
2023/07/02 06:49:55;;;;;;;;;;;27.30;53.70;;;;;;5128919;27;42884;-78
2023/07/02 06:52:20;;;;;;;;;;;27.30;54.10;;;;;;5128534;27;42943;-79
2023/07/02 06:54:46;;;;;;;;;;;27.30;54.10;;;;;;5128496;27;42952;-78
2023/07/02 06:57:14;;;;;;;;;;;27.20;54.10;;;;;;5128468;27;43743;-78
2023/07/02 06:59:40;;;;;;;;;;;27.20;53.60;;;;;;5126395;27;42890;-78
2023/07/02 07:02:06;;;;;;;;;;;27.30;54.10;;;;;;5128295;27;43036;-79
2023/07/02 07:04:31;;;;;;;;;;;27.30;54.10;;;;;;5128997;27;42885;-79
2023/07/02 07:06:57;;;;;;;;;;;27.30;54.10;;;;;;5127268;27;43627;-78
2023/07/02 07:09:22;;;;;;;;;;;27.30;53.60;;;;;;5126805;27;43087;-78
2023/07/02 07:11:48;;;;;;;;;;;27.20;54.10;;;;;;5127054;27;43840;-79
2023/07/02 07:14:14;;;;;;;;;;;27.30;54.10;;;;;;5127604;27;43018;-78
2023/07/02 07:16:39;;;;;;;;;;;27.30;53.60;;;;;;5126518;27;43020;-78
2023/07/02 07:19:05;;;;;;;;;;;27.20;53.50;;;;;;5125748;27;43066;-78
2023/07/02 07:21:31;;;;;;;;;;;27.30;54.10;;;;;;5127486;27;43069;-77
2023/07/02 07:23:56;;;;;;;;;;;27.30;54.10;;;;;;5127268;27;42761;-78
2023/07/02 07:26:22;;;;;;;;;;;27.30;54.10;;;;;;5127124;27;43522;-77
2023/07/02 07:28:47;;;;;;;;;;;27.30;53.60;;;;;;5126584;27;42976;-77
2023/07/02 07:31:13;;;;;;;;;;;27.30;54.00;;;;;;5125202;27;42954;-78
2023/07/02 07:33:38;;;;;;;;;;;27.30;54.10;;;;;;5126308;27;42762;-78
2023/07/02 07:36:04;;;;;;;;;;;27.30;54.00;;;;;;5126586;27;43326;-82
2023/07/02 07:38:29;;;;;;;;;;;27.30;54.10;;;;;;5125894;27;42838;-78
2023/07/02 07:40:55;;;;;;;;;;;27.30;53.60;;;;;;5126197;27;43923;-78
2023/07/02 07:43:20;;;;;;;;;;;27.30;54.00;;;;;;5109553;27;43084;-78
2023/07/02 07:45:46;;;;;;;;;;;27.30;54.00;;;;;;5106956;27;42887;-78
2023/07/02 07:48:11;;;;;;;;;;;27.30;54.00;;;;;;5107316;27;43044;-77
2023/07/02 07:50:37;;;;;;;;;;;27.30;54.00;;;;;;5127837;27;42924;-78
2023/07/02 07:53:02;;;;;;;;;;;27.30;53.60;;;;;;5127965;27;42939;-78
2023/07/02 07:55:28;;;;;;;;;;;27.30;53.60;;;;;;5127035;27;42879;-85
2023/07/02 07:57:53;;;;;;;;;;;27.30;54.00;;;;;;5129267;27;43018;-96
2023/07/02 08:00:19;;;;;;;;;;;27.30;53.60;;;;;;5125518;27;43547;-79
2023/07/02 08:02:46;;;;;;;;;;;27.30;53.60;;;;;;5109184;27;42976;-78
2023/07/02 08:05:11;;;;;;;;;;;27.30;54.00;;;;;;5126093;27;44494;-81
2023/07/02 08:07:37;;;;;;;;;;;27.30;53.50;;;;;;5126111;27;42971;-77
2023/07/02 08:10:03;;;;;;;;;;;27.30;53.50;;;;;;5130849;27;43437;-85
2023/07/02 08:12:29;;;;;;;;;;;27.30;53.60;;;;;;5107200;27;43019;-78
2023/07/02 08:14:57;;;;;;;;;;;27.30;54.00;;;;;;5126073;27;42817;-80
2023/07/02 08:17:23;;;;;;;;;;;27.30;53.60;;;;;;5126325;27;43024;-78
2023/07/02 08:19:49;;;;;;;;;;;27.40;53.60;;;;;;5106927;27;45442;-78
2023/07/02 08:22:14;;;;;;;;;;;27.30;53.50;;;;;;5133216;27;42890;-78
2023/07/02 08:24:40;;;;;;;;;;;27.40;54.20;;;;;;5137723;27;43458;-92
2023/07/02 08:27:05;;;;;;;;;;;27.30;53.50;;;;;;5139072;27;42438;-95
2023/07/02 08:29:31;;;;;;;;;;;27.30;53.50;;;;;;5132810;27;42802;-78
2023/07/02 08:31:57;;;;;;;;;;;27.30;53.50;;;;;;5136568;27;42986;-78
2023/07/02 08:34:22;;;;;;;;;;;27.30;53.50;;;;;;5141636;27;43499;-89
2023/07/02 08:36:48;;;;;;;;;;;27.40;53.60;;;;;;5131110;27;42976;-78
2023/07/02 08:39:14;;;;;;;;;;;27.40;53.60;;;;;;5137037;27;43435;-96
2023/07/02 08:41:44;;;;;;;;;;;27.30;53.50;;;;;;5129202;27;42958;-78
2023/07/02 08:44:10;;;;;;;;;;;27.30;53.90;;;;;;5112290;27;42932;-77
2023/07/02 08:46:35;;;;;;;;;;;27.40;54.00;;;;;;5134800;27;42836;-82
2023/07/02 08:49:01;;;;;;;;;;;27.40;54.10;;;;;;5114201;27;43486;-84
2023/07/02 08:51:26;;;;;;;;;;;27.40;53.60;;;;;;5132876;27;42940;-79
2023/07/02 08:53:52;;;;;;;;;;;27.40;54.10;;;;;;5130468;27;42800;-94
2023/07/02 08:56:17;;;;;;;;;;;27.40;53.60;;;;;;5141444;27;42363;-84
2023/07/02 08:58:44;;;;;;;;;;;27.40;53.60;;;;;;5149209;27;43480;-79
2023/07/02 09:01:11;;;;;;;;;;;27.40;54.10;;;;;;5143411;27;42712;-78
2023/07/02 09:03:37;;;;;;;;;;;27.40;54.00;;;;;;5138073;27;42837;-78
2023/07/02 09:06:04;;;;;;;;;;;27.40;53.60;;;;;;5135016;27;42947;-79
2023/07/02 09:08:29;;;;;;;;;;;27.30;54.00;;;;;;5144920;27;42882;-78
2023/07/02 09:11:11;;;;;;;;;;;27.40;54.10;;;;;;5136633;27;42767;-78
2023/07/02 09:13:46;;;;;;;;;;;27.40;53.70;;;;;;5135358;27;42991;-79
2023/07/02 09:16:21;;;;;;;;;;;27.40;53.70;;;;;;5146775;27;42798;-86
2023/07/02 09:19:09;;;;;;;;;;;27.40;53.70;;;;;;5136403;27;42971;-79
2023/07/02 09:21:41;;;;;;;;;;;27.30;53.60;;;;;;5139369;27;43124;-78
2023/07/02 09:24:13;;;;;;;;;;;27.40;54.10;;;;;;5128414;27;43952;-79
2023/07/02 09:26:42;;;;;;;;;;;27.40;54.10;;;;;;5129777;27;42810;-79
2023/07/02 09:29:07;;;;;;;;;;;27.40;53.60;;;;;;5127743;27;43832;-79
2023/07/02 09:31:42;;;;;;;;;;;27.40;53.70;;;;;;5136590;27;43096;-78
2023/07/02 09:34:08;;;;;;;;;;;27.40;53.70;;;;;;5134878;27;43703;-78
2023/07/02 09:36:33;;;;;;;;;;;27.40;54.10;;;;;;5136481;27;42818;-79
2023/07/02 09:38:59;;;;;;;;;;;27.40;53.70;;;;;;5140366;27;43041;-79
2023/07/02 09:41:25;;;;;;;;;;;27.40;53.60;;;;;;5140444;27;43059;-79
2023/07/02 09:43:51;;;;;;;;;;;27.40;53.70;;;;;;5148750;27;42749;-78
2023/07/02 09:46:16;;;;;;;;;;;27.40;53.70;;;;;;5149898;27;42422;-79
2023/07/02 09:48:42;;;;;;;;;;;27.40;53.70;;;;;;5127094;27;43913;-78
2023/07/02 09:51:07;;;;;;;;;;;27.40;53.70;;;;;;5145285;27;42784;-86
2023/07/02 09:53:33;;;;;;;;;;;27.40;54.10;;;;;;5129003;27;44669;-88
2023/07/02 09:55:59;;;;;;;;;;;27.40;54.10;;;;;;5132816;27;42829;-79
2023/07/02 09:58:24;;;;;;;;;;;27.40;53.70;;;;;;5147596;27;42689;-78
2023/07/02 10:00:50;;;;;;;;;;;27.40;54.10;;;;;;5127577;27;43081;-78
2023/07/02 10:03:15;;;;;;;;;;;27.40;53.70;;;;;;5137498;27;43809;-79
2023/07/02 10:05:41;;;;;;;;;;;27.40;54.10;;;;;;5144271;27;42876;-79
2023/07/02 10:08:18;;;;;;;;;;;27.40;53.70;;;;;;5137570;27;43226;-79
2023/07/02 10:10:44;;;;;;;;;;;27.40;54.10;;;;;;5119141;27;42922;-79
2023/07/02 10:13:09;;;;;;;;;;;27.50;53.70;;;;;;5137090;27;42989;-79
2023/07/02 10:15:39;;;;;;;;;;;27.40;53.70;;;;;;5141058;27;42991;-79
2023/07/02 10:18:05;;;;;;;;;;;27.40;54.10;;;;;;5152183;27;43486;-79
2023/07/02 10:20:32;;;;;;;;;;;27.40;53.70;;;;;;5142175;27;42820;-85
2023/07/02 10:22:58;;;;;;;;;;;27.40;54.20;;;;;;5134243;27;43590;-78
2023/07/02 10:25:24;;;;;;;;;;;27.40;53.70;;;;;;5138096;27;43089;-78
2023/07/02 10:27:50;;;;;;;;;;;27.40;53.70;;;;;;5144697;27;42772;-79
2023/07/02 10:30:15;;;;;;;;;;;27.40;53.70;;;;;;5143037;27;42795;-78
2023/07/02 10:32:41;;;;;;;;;;;27.50;54.20;;;;;;5138072;27;43662;-79
2023/07/02 10:35:13;;;;;;;;;;;27.50;53.80;;;;;;5135811;27;42833;-82
2023/07/02 10:37:39;;;;;;;;;;;27.50;53.70;;;;;;5127359;27;43442;-78
2023/07/02 10:40:09;;;;;;;;;;;27.50;53.80;;;;;;5142461;27;42920;-78
2023/07/02 10:42:44;;;;;;;;;;;27.50;54.20;;;;;;5139751;27;42692;-78
2023/07/02 10:45:10;;;;;;;;;;;27.50;54.20;;;;;;5136312;27;42825;-78
2023/07/02 10:47:39;;;;;;;;;;;27.50;53.70;;;;;;5137343;27;43441;-78
2023/07/02 10:50:13;;;;;;;;;;;27.40;53.70;;;;;;5126805;27;42909;-78
2023/07/02 10:52:39;;;;;;;;;;;27.50;53.70;;;;;;5108728;27;45537;-78
2023/07/02 10:55:05;;;;;;;;;;;27.50;53.70;;;;;;5135746;27;43005;-78
2023/07/02 10:57:30;;;;;;;;;;;27.50;53.70;;;;;;5145468;27;43583;-78
2023/07/02 11:00:03;;;;;;;;;;;27.50;53.70;;;;;;5137161;27;42834;-96
2023/07/02 11:02:36;;;;;;;;;;;27.50;53.70;;;;;;5111750;27;44362;-80
2023/07/02 11:05:02;;;;;;;;;;;27.50;53.70;;;;;;5146989;27;42838;-85
2023/07/02 11:07:28;;;;;;;;;;;27.50;53.70;;;;;;5136650;27;43011;-79
2023/07/02 11:09:53;;;;;;;;;;;27.30;53.60;;;;;;5119944;27;42953;-78
2023/07/02 11:12:26;;;;;;;;;;;27.40;53.70;;;;;;5138950;27;42910;-79
2023/07/02 11:14:52;;;;;;;;;;;27.50;53.70;;;;;;5128067;27;42997;-79
2023/07/02 11:17:24;;;;;;;;;;;27.40;53.70;;;;;;5130482;27;43441;-78
2023/07/02 11:19:50;;;;;;;;;;;27.50;53.70;;;;;;5133173;27;42850;-78
2023/07/02 11:22:16;;;;;;;;;;;27.50;53.70;;;;;;5140627;27;42975;-79
2023/07/02 11:24:42;;;;;;;;;;;27.50;53.70;;;;;;5119559;27;43132;-78
2023/07/02 11:27:07;;;;;;;;;;;27.50;53.70;;;;;;5141787;27;42814;-79
2023/07/02 11:29:39;;;;;;;;;;;27.40;53.70;;;;;;5130100;27;42936;-78
2023/07/02 11:32:07;;;;;;;;;;;27.50;53.70;;;;;;5134875;27;43005;-79
2023/07/02 11:34:57;;;;;;;;;;;27.50;53.70;;;;;;5137011;27;42862;-78
2023/07/02 11:37:22;;;;;;;;;;;27.50;53.70;;;;;;5141778;27;42684;-78
2023/07/02 11:39:48;;;;;;;;;;;27.50;54.20;;;;;;5133362;27;43009;-78
2023/07/02 11:42:13;;;;;;;;;;;27.50;54.20;;;;;;5127689;27;43682;-79
2023/07/02 11:44:40;;;;;;;;;;;27.50;54.20;;;;;;5135229;27;42891;-79
2023/07/02 11:47:05;;;;;;;;;;;27.50;53.80;;;;;;5126671;27;43488;-79
2023/07/02 11:49:31;;;;;;;;;;;27.50;54.30;;;;;;5131974;27;43051;-79
2023/07/02 11:51:57;;;;;;;;;;;27.50;53.80;;;;;;5113790;27;44521;-78
2023/07/02 11:54:22;;;;;;;;;;;27.50;53.70;;;;;;5145880;27;42885;-79
2023/07/02 11:56:48;;;;;;;;;;;27.50;53.80;;;;;;5126061;27;44226;-79
2023/07/02 11:59:13;;;;;;;;;;;27.50;54.30;;;;;;5137918;27;43035;-79
2023/07/02 12:01:39;;;;;;;;;;;27.50;53.70;;;;;;5139235;27;42853;-79
2023/07/02 12:04:05;;;;;;;;;;;27.50;53.70;;;;;;5139354;27;42795;-79
2023/07/02 12:06:31;;;;;;;;;;;27.50;53.70;;;;;;5132031;27;43513;-79
2023/07/02 12:08:56;;;;;;;;;;;27.50;53.80;;;;;;5132804;27;43020;-78
2023/07/02 12:11:22;;;;;;;;;;;27.50;54.20;;;;;;5127978;27;43441;-79
2023/07/02 12:13:47;;;;;;;;;;;27.50;53.80;;;;;;5133068;27;42712;-79
2023/07/02 12:16:13;;;;;;;;;;;27.50;53.80;;;;;;5152490;27;42430;-79
2023/07/02 12:18:38;;;;;;;;;;;27.50;53.80;;;;;;5144122;27;42863;-79
2023/07/02 12:21:04;;;;;;;;;;;27.50;54.30;;;;;;5157306;27;42515;-78
2023/07/02 12:23:29;;;;;;;;;;;27.50;53.80;;;;;;5146009;27;42791;-79
2023/07/02 12:25:55;;;;;;;;;;;27.50;53.80;;;;;;5135844;27;42940;-78
2023/07/02 12:28:20;;;;;;;;;;;27.50;53.80;;;;;;5142641;27;43054;-78
2023/07/02 12:30:46;;;;;;;;;;;27.50;53.90;;;;;;5145535;27;42913;-78
2023/07/02 12:33:11;;;;;;;;;;;27.40;54.00;;;;;;5156196;27;42362;-79
2023/07/02 12:35:37;;;;;;;;;;;27.40;54.10;;;;;;5129182;27;43102;-79
2023/07/02 12:38:03;;;;;;;;;;;27.40;54.60;;;;;;5150500;27;42921;-78
2023/07/02 12:40:29;;;;;;;;;;;27.40;54.60;;;;;;5124256;27;43706;-79
2023/07/02 12:42:56;;;;;;;;;;;27.40;54.60;;;;;;5135797;27;42911;-79
2023/07/02 12:47:47;;;;;;;;;;;27.30;54.20;;;;;;5092371;22;68176;-78
2023/07/02 12:50:12;;;;;;;;;;;27.40;54.30;;;;;;5107508;28;43570;-78
2023/07/02 12:52:38;;;;;;;;;;;27.40;54.30;;;;;;5109800;28;42692;-79
2023/07/02 12:55:03;;;;;;;;;;;27.30;54.20;;;;;;5096858;28;43736;-79
2023/07/02 12:57:29;;;;;;;;;;;27.30;54.20;;;;;;5092378;28;42799;-79
2023/07/02 12:59:55;;;;;;;;;;;27.30;54.30;;;;;;5114386;28;43653;-79
2023/07/02 13:02:21;;;;;;;;;;;27.30;54.20;;;;;;5104271;27;42910;-78
2023/07/02 13:04:46;;;;;;;;;;;27.40;54.70;;;;;;5101847;28;43025;-79
2023/07/02 13:07:12;;;;;;;;;;;27.30;54.20;;;;;;5100785;28;43073;-78
2023/07/02 13:09:37;;;;;;;;;;;27.30;54.20;;;;;;5107297;28;43066;-78
2023/07/02 13:12:03;;;;;;;;;;;27.40;54.70;;;;;;5088914;28;42908;-78
2023/07/02 13:14:28;;;;;;;;;;;27.30;54.70;;;;;;5101462;28;42925;-79
2023/07/02 13:16:54;;;;;;;;;;;27.40;54.70;;;;;;5104837;28;43068;-80
2023/07/02 13:19:19;;;;;;;;;;;27.40;54.30;;;;;;5102160;28;42981;-79
2023/07/02 13:21:45;;;;;;;;;;;27.40;54.30;;;;;;5103018;27;43110;-79
2023/07/02 13:24:12;;;;;;;;;;;27.40;54.30;;;;;;5109617;28;44459;-78
2023/07/02 13:26:37;;;;;;;;;;;27.40;54.20;;;;;;5104683;28;42857;-79
2023/07/02 13:29:03;;;;;;;;;;;27.30;54.20;;;;;;5114757;27;43647;-78
2023/07/02 13:31:28;;;;;;;;;;;27.40;54.30;;;;;;5098460;28;42676;-79
2023/07/02 13:33:54;;;;;;;;;;;27.30;54.20;;;;;;5105195;28;42775;-86
2023/07/02 13:36:19;;;;;;;;;;;27.30;54.70;;;;;;5113685;28;42680;-78
2023/07/02 13:38:45;;;;;;;;;;;27.40;54.70;;;;;;5094176;28;42735;-79
2023/07/02 13:41:10;;;;;;;;;;;27.30;54.20;;;;;;5096974;28;42961;-78
2023/07/02 13:43:36;;;;;;;;;;;27.40;54.30;;;;;;5101137;27;43698;-79
2023/07/02 13:46:01;;;;;;;;;;;27.30;54.20;;;;;;5096877;28;42918;-78
2023/07/02 13:48:27;;;;;;;;;;;27.30;54.20;;;;;;5106580;27;43822;-78
2023/07/02 13:50:53;;;;;;;;;;;27.40;54.20;;;;;;5102787;28;42953;-78
2023/07/02 13:53:19;;;;;;;;;;;27.40;54.70;;;;;;5102898;27;43073;-78
2023/07/02 13:55:45;;;;;;;;;;;27.30;54.20;;;;;;5102132;27;42782;-79
2023/07/02 13:58:10;;;;;;;;;;;27.40;54.30;;;;;;5101419;27;42921;-78
2023/07/02 14:00:36;;;;;;;;;;;27.40;54.70;;;;;;5099837;28;42981;-79
2023/07/02 14:03:03;;;;;;;;;;;27.40;54.30;;;;;;5092216;28;43046;-78
2023/07/02 14:05:28;;;;;;;;;;;27.40;54.70;;;;;;5103009;28;42751;-78
2023/07/02 14:07:54;;;;;;;;;;;27.40;54.70;;;;;;5094710;28;42751;-79
2023/07/02 14:10:19;;;;;;;;;;;27.40;54.30;;;;;;5097601;28;42759;-79
2023/07/02 14:12:45;;;;;;;;;;;27.40;54.30;;;;;;5098411;28;43408;-79
2023/07/02 14:15:11;;;;;;;;;;;27.30;54.70;;;;;;5097220;28;42989;-78